createdAt,value
2024-01-15T00:01:53.762Z,94837.03
2024-01-15T00:04:22.744Z,94836.91
2024-01-15T00:06:51.412Z,94842.91
2024-01-15T00:09:19.084Z,94834.13
2024-01-15T00:11:47.351Z,94836.00
2024-01-15T00:14:15.818Z,94837.28
2024-01-15T00:16:43.461Z,94836.22
2024-01-15T00:19:11.154Z,94832.38
2024-01-15T00:21:40.116Z,94839.81
2024-01-15T00:24:07.801Z,94825.97
2024-01-15T00:26:35.341Z,94831.84
2024-01-15T00:29:04.133Z,94833.16
2024-01-15T00:31:32.116Z,94837.78
2024-01-15T00:34:00.109Z,94831.81
2024-01-15T00:36:27.951Z,94847.97
2024-01-15T00:38:56.819Z,94848.53
2024-01-15T00:41:24.388Z,94839.09
2024-01-15T00:43:51.991Z,94828.16
2024-01-15T00:46:19.666Z,94837.78
2024-01-15T00:48:48.201Z,94838.06
2024-01-15T00:51:15.951Z,94828.66
2024-01-15T00:53:43.542Z,94826.06
2024-01-15T00:56:12.553Z,94820.03
2024-01-15T00:58:40.059Z,94834.56
2024-01-15T01:01:07.694Z,94814.69
2024-01-15T01:03:35.393Z,94816.56
2024-01-15T01:06:02.966Z,94832.16
2024-01-15T01:08:30.497Z,94815.00
2024-01-15T01:10:58.056Z,94829.16
2024-01-15T01:13:26.923Z,94832.47
2024-01-15T01:15:54.525Z,94827.50
2024-01-15T01:18:22.239Z,94837.44
2024-01-15T01:20:49.868Z,94839.41
2024-01-15T01:23:17.419Z,94839.50
2024-01-15T01:25:45.012Z,94840.22
2024-01-15T01:28:12.581Z,94847.34
2024-01-15T01:30:41.691Z,94840.19
2024-01-15T01:33:09.534Z,94840.91
2024-01-15T01:35:37.211Z,94854.91
2024-01-15T01:38:05.005Z,94858.22
2024-01-15T01:40:32.571Z,94861.97
2024-01-15T01:43:00.133Z,94861.13
2024-01-15T01:45:27.728Z,94860.19
2024-01-15T01:47:56.796Z,94863.84
2024-01-15T01:50:24.878Z,94857.88
2024-01-15T01:52:52.605Z,94863.41
2024-01-15T01:55:21.203Z,94862.09
2024-01-15T01:57:49.224Z,94857.84
2024-01-15T02:00:17.719Z,94853.47
2024-01-15T02:02:45.411Z,94860.00
2024-01-15T02:05:16.117Z,94867.25
2024-01-15T02:07:43.699Z,94861.81
2024-01-15T02:10:11.641Z,94858.16
2024-01-15T02:12:39.298Z,94859.91
2024-01-15T02:15:07.698Z,94869.94
2024-01-15T02:17:35.341Z,94857.00
2024-01-15T02:20:03.344Z,94862.31
2024-01-15T02:22:32.303Z,94864.34
2024-01-15T02:25:01.231Z,94866.06
2024-01-15T02:27:28.859Z,94865.94
2024-01-15T02:29:57.615Z,94860.16
2024-01-15T02:32:25.173Z,94867.25
2024-01-15T02:34:52.884Z,94855.09
2024-01-15T02:37:21.878Z,94869.03
2024-01-15T02:39:49.535Z,94881.03
2024-01-15T02:42:18.505Z,94854.97
2024-01-15T02:44:46.087Z,94868.72
2024-01-15T02:47:13.642Z,94873.91
2024-01-15T02:49:41.255Z,94870.97
2024-01-15T02:52:08.854Z,94862.41
2024-01-15T02:54:36.631Z,94874.16
2024-01-15T02:57:04.364Z,94870.97
2024-01-15T02:59:33.265Z,94864.50
2024-01-15T03:02:00.797Z,94868.31
2024-01-15T03:04:28.578Z,94852.94
2024-01-15T03:06:56.317Z,94866.50
2024-01-15T03:09:23.877Z,94874.78
2024-01-15T03:11:51.407Z,94869.59
2024-01-15T03:14:18.949Z,94869.59
2024-01-15T03:16:47.814Z,94877.03
2024-01-15T03:19:15.558Z,94868.03
2024-01-15T03:21:43.153Z,94877.50
2024-01-15T03:24:10.790Z,94880.50
2024-01-15T03:26:38.334Z,94882.72
2024-01-15T03:29:05.881Z,94889.97
2024-01-15T03:31:33.462Z,94877.81
2024-01-15T03:34:02.663Z,94876.28
2024-01-15T03:36:30.237Z,94870.97
2024-01-15T03:38:57.778Z,94868.88
2024-01-15T03:41:25.321Z,94863.56
2024-01-15T03:43:52.847Z,94869.59
2024-01-15T03:46:20.423Z,94864.63
2024-01-15T03:48:48.023Z,94877.59
2024-01-15T03:51:17.666Z,94871.00
2024-01-15T03:53:45.209Z,94873.91
2024-01-15T03:56:12.817Z,94867.91
2024-01-15T03:58:40.458Z,94857.63
2024-01-15T04:01:10.025Z,94860.28
2024-01-15T04:03:38.064Z,94857.34
2024-01-15T04:06:06.585Z,94854.44
2024-01-15T04:08:35.511Z,94848.28
2024-01-15T04:11:03.528Z,94855.63
2024-01-15T04:13:31.050Z,94859.03
2024-01-15T04:15:58.697Z,94855.84
2024-01-15T04:18:26.315Z,94856.41
2024-01-15T04:20:53.929Z,94863.34
2024-01-15T04:23:21.439Z,94852.63
2024-01-15T04:25:50.302Z,94853.69
2024-01-15T04:28:17.907Z,94859.25
2024-01-15T04:30:45.505Z,94851.16
2024-01-15T04:33:13.282Z,94847.56
2024-01-15T04:35:40.867Z,94854.03
2024-01-15T04:38:08.434Z,94858.16
2024-01-15T04:40:36.009Z,94860.00
2024-01-15T04:43:05.213Z,94856.19
2024-01-15T04:45:32.743Z,94862.38
2024-01-15T04:48:00.351Z,94860.25
2024-01-15T04:50:27.886Z,94858.22
2024-01-15T04:52:55.437Z,94857.34
2024-01-15T04:55:22.943Z,94853.25
2024-01-15T04:57:50.598Z,94845.41
2024-01-15T05:00:20.612Z,94843.84
2024-01-15T05:02:48.168Z,94841.22
2024-01-15T05:05:15.759Z,94832.75
2024-01-15T05:07:43.315Z,94824.34
2024-01-15T05:10:11.274Z,94831.00
2024-01-15T05:12:39.081Z,94825.91
2024-01-15T05:15:07.278Z,94820.06
2024-01-15T05:17:36.306Z,94821.69
2024-01-15T05:20:04.433Z,94828.75
2024-01-15T05:22:32.199Z,94826.28
2024-01-15T05:24:59.777Z,94827.03
2024-01-15T05:27:27.746Z,94836.56
2024-01-15T05:29:55.291Z,94830.84
2024-01-15T05:32:22.833Z,94830.78
2024-01-15T05:34:51.820Z,94836.09
2024-01-15T05:37:19.421Z,94831.94
2024-01-15T05:39:46.974Z,94832.50
2024-01-15T05:42:14.693Z,94826.53
2024-01-15T05:44:41.264Z,94831.88
2024-01-15T05:47:10.032Z,94837.94
2024-01-15T05:49:37.699Z,94838.97
2024-01-15T05:52:06.958Z,94830.34
2024-01-15T05:54:34.523Z,94824.00
2024-01-15T05:57:02.085Z,94835.44
2024-01-15T05:59:32.858Z,94836.56
2024-01-15T06:02:00.435Z,94836.19
2024-01-15T06:04:28.203Z,94829.50
2024-01-15T06:06:55.926Z,94823.44
2024-01-15T06:09:25.146Z,94821.84
2024-01-15T06:11:52.756Z,94822.66
2024-01-15T06:14:20.301Z,94817.22
2024-01-15T06:16:47.945Z,94813.84
2024-01-15T06:19:15.520Z,94813.44
2024-01-15T06:21:43.141Z,94809.47
2024-01-15T06:24:11.314Z,94807.16
2024-01-15T06:26:40.285Z,94811.69
2024-01-15T06:29:07.845Z,94807.66
2024-01-15T06:31:35.795Z,94807.72
2024-01-15T06:34:03.460Z,94815.59
2024-01-15T06:36:31.116Z,94812.22
2024-01-15T06:38:58.710Z,94820.03
2024-01-15T06:41:26.700Z,94818.13
2024-01-15T06:43:56.711Z,94812.38
2024-01-15T06:46:24.970Z,94802.78
2024-01-15T06:48:52.735Z,94812.94
2024-01-15T06:51:20.371Z,94811.47
2024-01-15T06:53:48.268Z,94812.75
2024-01-15T06:56:15.797Z,94815.97
2024-01-15T06:58:43.325Z,94802.72
2024-01-15T07:01:12.237Z,94801.38
2024-01-15T07:03:39.972Z,94807.19
2024-01-15T07:06:07.713Z,94802.19
2024-01-15T07:08:35.345Z,94810.63
2024-01-15T07:11:05.826Z,94803.81
2024-01-15T07:13:33.389Z,94803.09
2024-01-15T07:16:01.157Z,94794.03
2024-01-15T07:18:30.166Z,94801.84
2024-01-15T07:20:57.813Z,94795.00
2024-01-15T07:23:27.158Z,94797.78
2024-01-15T07:25:56.083Z,94796.00
2024-01-15T07:28:23.613Z,94802.50
2024-01-15T07:30:51.164Z,94789.44
2024-01-15T07:33:18.828Z,94793.69
2024-01-15T07:35:47.855Z,94799.56
2024-01-15T07:38:15.441Z,94792.84
2024-01-15T07:40:43.004Z,94796.84
2024-01-15T07:43:10.536Z,94798.19
2024-01-15T07:45:38.098Z,94805.63
2024-01-15T07:48:06.556Z,94802.06
2024-01-15T07:50:34.117Z,94798.59
2024-01-15T07:53:02.998Z,94792.53
2024-01-15T07:55:30.520Z,94801.66
2024-01-15T07:58:11.011Z,94791.13
2024-01-15T08:00:43.046Z,94798.28
2024-01-15T08:03:10.773Z,94802.88
2024-01-15T08:05:38.641Z,94811.31
2024-01-15T08:08:07.929Z,94804.44
2024-01-15T08:10:35.462Z,94806.88
2024-01-15T08:13:03.135Z,94804.22
2024-01-15T08:15:31.846Z,94806.75
2024-01-15T08:18:00.512Z,94800.06
2024-01-15T08:20:28.173Z,94796.06
2024-01-15T08:22:55.715Z,94802.22
2024-01-15T08:25:24.568Z,94791.53
2024-01-15T08:27:52.109Z,94797.56
2024-01-15T08:30:21.552Z,94786.56
2024-01-15T08:32:49.190Z,94788.69
2024-01-15T08:35:16.999Z,94797.03
2024-01-15T08:37:44.674Z,94785.44
2024-01-15T08:40:13.140Z,94791.25
2024-01-15T08:42:41.990Z,94782.47
2024-01-15T08:45:10.578Z,94790.16
2024-01-15T08:47:38.130Z,94778.41
2024-01-15T08:50:06.804Z,94780.88
2024-01-15T08:52:34.322Z,94787.97
2024-01-15T08:55:02.066Z,94788.00
2024-01-15T08:57:29.629Z,94786.75
2024-01-15T08:59:59.621Z,94782.22
2024-01-15T09:02:27.126Z,94783.06
2024-01-15T09:04:54.743Z,94789.78
2024-01-15T09:07:22.308Z,94777.09
2024-01-15T09:09:49.888Z,94779.66
2024-01-15T09:12:19.483Z,94795.22
2024-01-15T09:14:47.050Z,94793.22
2024-01-15T09:17:15.944Z,94798.66
2024-01-15T09:19:44.103Z,94802.97
2024-01-15T09:22:11.788Z,94801.06
2024-01-15T09:24:39.321Z,94803.66
2024-01-15T09:27:06.857Z,94801.28
2024-01-15T09:29:34.387Z,94791.63
2024-01-15T09:32:04.193Z,94789.53
2024-01-15T09:34:33.256Z,94787.41
2024-01-15T09:37:01.732Z,94793.59
2024-01-15T09:39:29.319Z,94791.00
2024-01-15T09:41:57.127Z,94797.13
2024-01-15T09:44:25.093Z,94801.69
2024-01-15T09:46:53.868Z,94792.94
2024-01-15T09:49:21.977Z,94798.13
2024-01-15T09:51:59.305Z,94794.91
2024-01-15T09:54:34.297Z,94800.81
2024-01-15T09:57:02.852Z,94800.22
2024-01-15T09:59:30.469Z,94798.06
2024-01-15T10:02:00.784Z,94794.78
2024-01-15T10:04:28.892Z,94784.25
2024-01-15T10:06:59.929Z,94782.75
2024-01-15T10:09:27.623Z,94791.28
2024-01-15T10:11:56.002Z,94781.41
2024-01-15T10:14:23.571Z,94773.66
2024-01-15T10:16:51.148Z,94767.72
2024-01-15T10:19:18.859Z,94761.41
2024-01-15T10:21:47.965Z,94764.59
2024-01-15T10:24:16.830Z,94752.09
2024-01-15T10:26:45.298Z,94758.34
2024-01-15T10:29:12.892Z,94742.66
2024-01-15T10:31:40.707Z,94746.75
2024-01-15T10:34:16.487Z,94745.69
2024-01-15T10:36:53.637Z,94748.34
2024-01-15T10:39:22.699Z,94751.47
2024-01-15T10:41:50.450Z,94743.53
2024-01-15T10:44:18.044Z,94737.59
2024-01-15T10:46:46.213Z,94743.50
2024-01-15T10:49:14.120Z,94723.75
2024-01-15T10:51:44.124Z,94732.53
2024-01-15T10:54:13.088Z,94737.16
2024-01-15T10:56:43.390Z,94733.34
2024-01-15T10:59:12.913Z,94738.03
2024-01-15T11:01:40.755Z,94726.50
2024-01-15T11:04:08.491Z,94730.06
2024-01-15T11:06:44.912Z,94726.44
2024-01-15T11:09:13.552Z,94732.25
2024-01-15T11:11:46.218Z,94733.34
2024-01-15T11:14:33.778Z,94732.81
2024-01-15T11:17:01.373Z,94732.53
2024-01-15T11:19:38.059Z,94731.44
2024-01-15T11:22:07.255Z,94731.56
2024-01-15T11:24:39.475Z,94728.72
2024-01-15T11:27:10.076Z,94741.31
2024-01-15T11:29:38.863Z,94744.34
2024-01-15T11:32:10.524Z,94729.50
2024-01-15T11:34:52.625Z,94724.56
2024-01-15T11:37:20.751Z,94730.31
2024-01-15T11:39:48.894Z,94736.50
2024-01-15T11:42:19.841Z,94723.88
2024-01-15T11:44:47.817Z,94728.16
2024-01-15T11:47:16.685Z,94726.06
2024-01-15T11:50:06.304Z,94733.47
2024-01-15T11:52:35.767Z,94726.91
2024-01-15T11:55:12.268Z,94731.03
2024-01-15T11:57:47.434Z,94724.00
2024-01-15T12:00:16.125Z,94732.53
2024-01-15T12:02:44.145Z,94724.84
2024-01-15T12:05:13.750Z,94723.34
2024-01-15T12:07:41.824Z,94718.00
2024-01-15T12:10:14.885Z,94718.00
2024-01-15T12:12:56.718Z,94717.16
2024-01-15T12:15:24.985Z,94705.09
2024-01-15T12:17:52.737Z,94705.53
2024-01-15T12:20:21.418Z,94697.81
2024-01-15T12:22:57.151Z,94695.34
2024-01-15T12:25:31.032Z,94689.19
2024-01-15T12:28:00.575Z,94688.63
2024-01-15T12:30:28.419Z,94680.34
2024-01-15T12:32:56.777Z,94677.88
2024-01-15T12:35:27.221Z,94670.56
2024-01-15T12:37:56.488Z,94682.47
2024-01-15T12:40:26.432Z,94677.47
2024-01-15T12:42:54.148Z,94674.63
2024-01-15T12:45:23.245Z,94677.22
2024-01-15T12:47:52.233Z,94682.00
2024-01-15T12:50:20.990Z,94677.81
2024-01-15T12:52:49.338Z,94695.22
2024-01-15T12:55:17.705Z,94683.78
2024-01-15T12:57:46.386Z,94678.88
2024-01-15T13:00:15.913Z,94679.75
2024-01-15T13:02:45.370Z,94673.22
2024-01-15T13:05:14.870Z,94673.47
2024-01-15T13:07:44.016Z,94668.75
2024-01-15T13:10:12.588Z,94688.63
2024-01-15T13:12:42.773Z,94680.78
2024-01-15T13:15:14.512Z,94685.31
2024-01-15T13:17:45.113Z,94677.41
2024-01-15T13:20:14.390Z,94677.34
2024-01-15T13:22:44.838Z,94681.22
2024-01-15T13:25:12.568Z,94682.81
2024-01-15T13:27:40.573Z,94684.50
2024-01-15T13:30:10.671Z,94691.63
2024-01-15T13:32:38.349Z,94696.97
2024-01-15T13:35:10.703Z,94693.81
2024-01-15T13:37:39.060Z,94697.25
2024-01-15T13:40:08.803Z,94693.84
2024-01-15T13:42:38.694Z,94693.44
2024-01-15T13:45:08.528Z,94696.56
2024-01-15T13:47:36.121Z,94692.47
2024-01-15T13:50:03.712Z,94691.94
2024-01-15T13:52:32.717Z,94690.13
2024-01-15T13:55:00.382Z,94686.97
2024-01-15T13:57:28.095Z,94691.94
2024-01-15T13:59:56.057Z,94692.19
2024-01-15T14:02:25.074Z,94687.22
2024-01-15T14:04:53.392Z,94693.69
2024-01-15T14:07:20.986Z,94689.44
2024-01-15T14:09:49.956Z,94688.06
2024-01-15T14:12:17.642Z,94698.91
2024-01-15T14:14:45.162Z,94699.88
2024-01-15T14:17:12.911Z,94702.06
2024-01-15T14:19:40.625Z,94702.78
2024-01-15T14:22:08.330Z,94697.44
2024-01-15T14:24:35.937Z,94702.22
2024-01-15T14:27:06.334Z,94692.97
2024-01-15T14:29:33.853Z,94694.69
2024-01-15T14:32:02.765Z,94694.59
2024-01-15T14:34:30.493Z,94701.72
2024-01-15T14:36:58.224Z,94696.94
2024-01-15T14:39:26.662Z,94704.19
2024-01-15T14:41:54.442Z,94701.19
2024-01-15T14:44:23.777Z,94695.38
2024-01-15T14:46:51.385Z,94693.47
2024-01-15T14:49:19.226Z,94691.84
2024-01-15T14:51:47.126Z,94690.41
2024-01-15T14:54:14.783Z,94702.59
2024-01-15T14:56:43.738Z,94707.56
2024-01-15T14:59:11.274Z,94698.50
2024-01-15T15:01:41.230Z,94699.31
2024-01-15T15:04:09.370Z,94708.25
2024-01-15T15:06:37.720Z,94701.34
2024-01-15T15:09:09.943Z,94707.56
2024-01-15T15:11:37.783Z,94723.19
2024-01-15T15:14:05.898Z,94724.84
2024-01-15T15:16:33.427Z,94724.28
2024-01-15T15:19:02.556Z,94727.47
2024-01-15T15:21:30.721Z,94723.47
2024-01-15T15:23:58.297Z,94729.50
2024-01-15T15:26:26.065Z,94736.09
2024-01-15T15:28:53.667Z,94734.19
2024-01-15T15:31:21.221Z,94733.91
2024-01-15T15:33:48.853Z,94736.94
2024-01-15T15:36:18.744Z,94745.56
2024-01-15T15:38:46.283Z,94735.00
2024-01-15T15:41:13.828Z,94749.28
2024-01-15T15:43:41.370Z,94745.53
2024-01-15T15:46:09.151Z,94747.34
2024-01-15T15:48:37.107Z,94752.28
2024-01-15T15:51:04.963Z,94746.69
2024-01-15T15:53:33.795Z,94744.50
2024-01-15T15:56:01.391Z,94745.88
2024-01-15T15:58:28.905Z,94751.94
2024-01-15T16:00:56.613Z,94746.47
2024-01-15T16:03:24.252Z,94758.47
2024-01-15T16:05:53.536Z,94746.97
2024-01-15T16:08:21.825Z,94765.28
2024-01-15T16:10:52.502Z,94765.53
2024-01-15T16:13:20.616Z,94767.06
2024-01-15T16:15:48.518Z,94770.69
2024-01-15T16:23:19.987Z,94770.47
2024-01-15T16:23:34.609Z,94771.53
2024-01-15T16:24:11.596Z,94778.13
2024-01-15T16:26:41.174Z,94782.34
2024-01-15T16:29:09.249Z,94784.63
2024-01-15T16:31:38.019Z,94794.81
2024-01-15T16:34:07.074Z,94787.06
2024-01-15T16:36:35.781Z,94797.16
2024-01-15T16:39:04.079Z,94800.22
2024-01-15T16:41:31.760Z,94786.38
2024-01-15T16:44:00.673Z,94807.94
2024-01-15T16:46:28.614Z,94807.00
2024-01-15T16:48:57.261Z,94819.13
2024-01-15T16:51:24.854Z,94820.44
2024-01-15T16:53:52.786Z,94820.44
2024-01-15T16:56:21.236Z,94839.34
2024-01-15T16:58:48.782Z,94839.53
2024-01-15T17:01:17.672Z,94849.47
2024-01-15T17:03:45.298Z,94856.50
2024-01-15T17:06:12.817Z,94858.41
2024-01-15T17:08:40.532Z,94867.16
2024-01-15T17:11:08.717Z,94867.56
2024-01-15T17:13:36.284Z,94876.09
2024-01-15T17:16:04.817Z,94885.63
2024-01-15T17:18:33.760Z,94893.06
2024-01-15T17:21:01.349Z,94898.47
2024-01-15T17:23:29.011Z,94901.00
2024-01-15T17:25:56.566Z,94905.38
2024-01-15T17:28:25.438Z,94902.59
2024-01-15T17:30:53.325Z,94919.59
2024-01-15T17:33:21.432Z,94920.31
2024-01-15T17:35:54.317Z,94919.34
2024-01-15T17:38:22.226Z,94916.72
2024-01-15T17:40:49.907Z,94919.94
2024-01-15T17:43:18.188Z,94930.34
2024-01-15T17:45:45.732Z,94930.84
2024-01-15T17:48:13.588Z,94926.72
2024-01-15T17:50:41.348Z,94932.81
2024-01-15T17:53:11.866Z,94932.53
2024-01-15T17:55:39.599Z,94944.13
2024-01-15T17:58:07.769Z,94950.72
2024-01-15T18:00:35.496Z,94943.19
2024-01-15T18:03:03.452Z,94952.56
2024-01-15T18:05:31.139Z,94952.66
2024-01-15T18:07:58.788Z,94944.84
2024-01-15T18:10:27.904Z,94953.44
2024-01-15T18:12:55.443Z,94961.69
2024-01-15T18:15:23.005Z,94968.75
2024-01-15T18:17:50.641Z,94964.38
2024-01-15T18:20:18.702Z,94969.25
2024-01-15T18:22:50.810Z,94944.16
2024-01-15T18:25:19.738Z,94952.53
2024-01-15T18:27:48.708Z,94977.59
2024-01-15T18:30:16.934Z,94975.44
2024-01-15T18:32:44.540Z,94974.75
2024-01-15T18:35:12.300Z,94980.88
2024-01-15T18:37:39.928Z,94982.28
2024-01-15T18:40:10.451Z,94984.88
2024-01-15T18:42:37.994Z,94978.25
2024-01-15T18:45:08.009Z,94977.19
2024-01-15T18:47:35.630Z,94976.78
2024-01-15T18:50:03.586Z,94992.91
2024-01-15T18:52:32.239Z,94989.91
2024-01-15T18:55:00.046Z,94990.41
2024-01-15T18:57:27.590Z,94985.66
2024-01-15T18:59:55.158Z,94993.19
2024-01-15T19:02:24.101Z,95000.34
2024-01-15T19:04:52.154Z,94991.00
2024-01-15T19:07:19.723Z,94997.63
2024-01-15T19:09:47.285Z,94996.84
2024-01-15T19:12:14.838Z,95000.41
2024-01-15T19:14:42.420Z,95004.66
2024-01-15T19:17:09.989Z,95000.06
2024-01-15T19:19:39.605Z,95009.41
2024-01-15T19:22:07.291Z,95002.13
2024-01-15T19:24:34.855Z,95004.88
2024-01-15T19:27:02.411Z,95018.34
2024-01-15T19:29:30.127Z,95021.31
2024-01-15T19:31:59.737Z,95016.34
2024-01-15T19:34:27.685Z,95027.69
2024-01-15T19:36:56.716Z,95018.84
2024-01-15T19:39:25.520Z,95023.63
2024-01-15T19:41:53.612Z,95022.50
2024-01-15T19:44:21.233Z,95027.34
2024-01-15T19:46:48.786Z,95035.91
2024-01-15T19:49:16.802Z,95043.34
2024-01-15T19:51:44.703Z,95055.16
2024-01-15T19:54:13.657Z,95038.41
2024-01-15T19:56:41.334Z,95059.03
2024-01-15T19:59:09.062Z,95055.34
2024-01-15T20:01:36.653Z,95065.53
2024-01-15T20:04:04.830Z,95063.09
2024-01-15T20:06:32.601Z,95069.97
2024-01-15T20:09:00.225Z,95074.78
2024-01-15T20:11:29.157Z,95076.66
2024-01-15T20:13:56.732Z,95066.03
2024-01-15T20:16:25.301Z,95080.16
2024-01-15T20:18:53.177Z,95087.00
2024-01-15T20:21:20.868Z,95089.50
2024-01-15T20:23:55.216Z,95097.47
2024-01-15T20:26:26.659Z,95092.84
2024-01-15T20:28:56.508Z,95093.84
2024-01-15T20:31:24.308Z,95108.59
2024-01-15T20:33:52.135Z,95126.97
2024-01-15T20:36:19.792Z,95116.63
2024-01-15T20:38:47.494Z,95120.00
2024-01-15T20:41:17.107Z,95131.38
2024-01-15T20:43:44.924Z,95122.25
2024-01-15T20:46:13.822Z,95129.69
2024-01-15T20:48:41.580Z,95137.50
2024-01-15T20:51:11.158Z,95127.56
2024-01-15T20:53:38.739Z,95145.78
2024-01-15T20:56:06.756Z,95138.34
2024-01-15T20:58:34.304Z,95137.94
2024-01-15T21:01:03.223Z,95140.56
2024-01-15T21:03:32.320Z,95132.78
2024-01-15T21:06:00.558Z,95151.56
2024-01-15T21:08:30.070Z,95140.56
2024-01-15T21:10:57.623Z,95146.47
2024-01-15T21:13:25.262Z,95146.28
2024-01-15T21:15:53.174Z,95152.19
2024-01-15T21:18:21.209Z,95151.69
2024-01-15T21:20:50.271Z,95137.03
2024-01-15T21:23:17.893Z,95155.72
2024-01-15T21:25:45.436Z,95152.88
2024-01-15T21:28:12.960Z,95163.63
2024-01-15T21:30:40.550Z,95156.78
2024-01-15T21:33:09.091Z,95157.38
2024-01-15T21:35:36.803Z,95163.31
2024-01-15T21:38:05.813Z,95155.38
2024-01-15T21:40:35.176Z,95162.34
2024-01-15T21:43:02.695Z,95177.38
2024-01-15T21:45:30.371Z,95173.81
2024-01-15T21:47:58.130Z,95189.28
2024-01-15T21:50:25.773Z,95176.75
2024-01-15T21:52:53.308Z,95189.75
2024-01-15T21:55:22.244Z,95183.63
2024-01-15T21:57:49.775Z,95185.66
2024-01-15T22:00:19.487Z,95200.66
2024-01-15T22:02:47.949Z,95204.19
2024-01-15T22:05:16.757Z,95211.78
2024-01-15T22:07:45.383Z,95211.53
2024-01-15T22:10:13.276Z,95214.03
2024-01-15T22:12:42.210Z,95208.25
2024-01-15T22:15:10.577Z,95194.16
2024-01-15T22:17:38.226Z,95202.78
2024-01-15T22:20:07.814Z,95222.78
2024-01-15T22:22:35.845Z,95209.63
2024-01-15T22:25:03.928Z,95220.03
2024-01-15T22:27:31.509Z,95220.75
2024-01-15T22:30:00.430Z,95218.06
2024-01-15T22:32:30.918Z,95226.44
2024-01-15T22:34:59.601Z,95219.34
2024-01-15T22:37:27.137Z,95226.09
2024-01-15T22:39:54.682Z,95229.28
2024-01-15T22:42:22.214Z,95225.28
2024-01-15T22:44:49.941Z,95219.47
2024-01-15T22:47:18.991Z,95223.25
2024-01-15T22:49:46.511Z,95233.66
2024-01-15T22:52:14.557Z,95225.16
2024-01-15T22:54:42.096Z,95226.91
2024-01-15T22:57:09.660Z,95222.88
2024-01-15T22:59:37.288Z,95223.50
2024-01-15T23:02:05.248Z,95228.19
2024-01-15T23:04:34.212Z,95230.91
2024-01-15T23:07:01.723Z,95227.97
2024-01-15T23:09:29.418Z,95234.00
2024-01-15T23:11:56.932Z,95236.59
2024-01-15T23:14:24.865Z,95243.69
2024-01-15T23:16:53.202Z,95245.09
2024-01-15T23:19:20.756Z,95246.59
2024-01-15T23:21:49.658Z,95243.63
2024-01-15T23:24:17.174Z,95254.28
2024-01-15T23:26:44.739Z,95252.84
2024-01-15T23:29:12.516Z,95250.25
2024-01-15T23:31:41.746Z,95259.63
2024-01-15T23:34:09.715Z,95244.03
2024-01-15T23:36:37.717Z,95244.75
2024-01-15T23:39:08.914Z,95259.31
2024-01-15T23:41:37.218Z,95249.28
2024-01-15T23:44:05.240Z,95245.25
2024-01-15T23:46:32.821Z,95245.63
2024-01-15T23:49:00.357Z,95251.13
2024-01-15T23:51:28.201Z,95257.84
2024-01-15T23:53:55.765Z,95249.81
2024-01-15T23:56:24.720Z,95249.53
2024-01-15T23:58:52.329Z,95250.63
